Time;durP1;ratioP1;P1;durP2;ratioP2;P2;SDS_P1;SDS_P2;PMS_P1;PMS_P2;Temp;Humidity;BMP_temperature;BMP_pressure;BME280_temperature;BME280_humidity;BME280_pressure;Samples;Min_cycle;Max_cycle;Signal;HPM_P1;HPM_P2
2022/04/25 00:01:43;;;;;;;5.45;2.47;;;;;;;6.50;85.79;91738.44;4806509;29;20058;-88
2022/04/25 00:04:29;;;;;;;;;;;;;;;;;;;;;
2022/04/25 00:07:02;;;;;;;9.20;2.60;;;;;;;6.58;85.50;91743.03;4813684;29;20042;-89
2022/04/25 00:09:40;;;;;;;4.03;2.40;;;;;;;6.50;85.63;91725.44;4808491;29;20042;-89
2022/04/25 00:12:26;;;;;;;5.82;2.60;;;;;;;6.58;85.63;91728.19;4792729;29;20103;-89
2022/04/25 00:15:25;;;;;;;4.57;2.60;;;;;;;6.54;85.33;91726.44;4777843;29;20561;-89
2022/04/25 00:17:56;;;;;;;8.45;2.85;;;;;;;6.62;85.68;91731.78;4777788;29;20105;-89
2022/04/25 00:20:29;;;;;;;6.25;2.85;;;;;;;6.58;85.54;91730.03;4791842;29;20129;-89
2022/04/25 00:23:10;;;;;;;5.22;2.50;;;;;;;6.34;85.33;91699.63;4807449;29;20037;-89
2022/04/25 00:25:41;;;;;;;6.82;2.50;;;;;;;6.40;85.70;91700.34;4787376;29;20066;-89
2022/04/25 00:28:09;;;;;;;6.18;2.50;;;;;;;6.55;85.55;91717.56;4791498;29;20031;-88
2022/04/25 00:30:58;;;;;;;9.20;2.78;;;;;;;6.38;85.91;91692.06;4791500;29;20130;-88
2022/04/25 00:33:50;;;;;;;;;;;;;;;;;;;;;
2022/04/25 00:36:20;;;;;;;7.10;3.25;;;;;;;6.62;87.05;91723.19;4778142;29;20434;-88
2022/04/25 00:39:03;;;;;;;6.72;2.60;;;;;;;6.45;86.77;91698.44;4777216;29;20054;-89
2022/04/25 00:41:52;;;;;;;;;;;;;;;;;;;;;
2022/04/25 00:44:34;;;;;;;5.75;2.42;;;;;;;6.53;86.59;91706.66;4812571;29;20527;-88
2022/04/25 00:47:18;;;;;;;5.93;3.03;;;;;;;6.70;85.04;91740.78;4794442;29;20517;-89
2022/04/25 00:50:08;;;;;;;6.40;3.17;;;;;;;6.56;85.90;91724.31;4808848;29;20125;-89
2022/04/25 00:52:36;;;;;;;4.90;2.80;;;;;;;6.37;86.01;91691.28;4825016;29;20065;-89
2022/04/25 00:55:10;;;;;;;6.13;2.50;;;;;;;6.34;86.11;91681.44;4808856;29;20038;-89
2022/04/25 00:57:37;;;;;;;6.88;2.58;;;;;;;6.32;86.37;91688.72;4791981;29;20060;-89
2022/04/25 01:00:28;;;;;;;4.93;2.80;;;;;;;6.38;86.37;91698.00;4791142;29;20038;-89
2022/04/25 01:03:10;;;;;;;4.65;2.80;;;;;;;6.18;86.46;91678.25;4792338;29;20103;-90
2022/04/25 01:05:57;;;;;;;7.28;2.97;;;;;;;6.52;87.06;91738.94;4780031;29;20099;-88
2022/04/25 01:08:38;;;;;;;;;;;;;;;;;;;;;
2022/04/25 01:11:23;;;;;;;4.65;2.83;;;;;;;6.08;87.50;91688.78;4805482;29;20035;-88
2022/04/25 01:13:54;;;;;;;6.75;2.78;;;;;;;5.96;87.36;91677.97;4790289;29;20054;-90
2022/04/25 01:16:33;;;;;;;5.18;3.13;;;;;;;6.22;87.84;91730.44;4782763;29;20042;-89
2022/04/25 01:19:15;;;;;;;6.10;3.15;;;;;;;5.83;87.66;91668.97;4789063;29;20388;-89
2022/04/25 01:22:13;;;;;;;7.85;3.40;;;;;;;5.76;87.03;91681.53;4789737;29;20092;-90
2022/04/25 01:27:57;;;;;;;6.43;2.90;;;;;;;5.61;87.22;91685.84;4790319;29;20055;-89
2022/04/25 01:30:25;;;;;;;7.15;3.20;;;;;;;5.80;87.52;91713.69;4790277;29;20038;-89
2022/04/25 01:33:00;;;;;;;6.00;3.17;;;;;;;5.59;87.53;91685.34;4785302;29;20049;-89
2022/04/25 01:35:43;;;;;;;8.52;3.00;;;;;;;5.65;87.54;91701.63;4806739;29;20058;-89
2022/04/25 01:38:34;;;;;;;4.53;2.75;;;;;;;5.40;87.75;91674.09;4781033;29;20443;-89
2022/04/25 01:41:12;;;;;;;6.78;3.10;;;;;;;5.72;88.07;91727.28;4806325;29;20480;-89
2022/04/25 01:44:00;;;;;;;;;;;;;;;;;;;;;
2022/04/25 01:46:42;;;;;;;5.55;3.00;;;;;;;5.42;89.03;91696.13;4806184;29;20039;-88
2022/04/25 01:49:13;;;;;;;8.18;3.60;;;;;;;5.21;89.22;91668.81;4789714;29;20038;-89
2022/04/25 01:52:04;;;;;;;7.60;3.13;;;;;;;5.19;89.39;91674.25;4792412;29;20379;-88
2022/04/25 01:54:50;;;;;;;8.00;2.90;;;;;;;5.10;88.97;91656.97;4824128;29;20022;-89
2022/04/25 01:57:28;;;;;;;7.85;3.08;;;;;;;5.40;89.40;91713.81;4808257;29;20383;-89
2022/04/25 01:59:57;;;;;;;6.30;3.10;;;;;;;4.98;89.61;91649.56;4793803;29;20034;-88
2022/04/25 02:02:35;;;;;;;5.70;2.97;;;;;;;4.95;89.65;91643.09;4786612;30;20070;-88
2022/04/25 02:05:14;;;;;;;;;;;;;;;;;;;;;
2022/04/25 02:08:11;;;;;;;6.07;2.92;;;;;;;4.90;90.30;91648.28;4824525;29;20049;-88
2022/04/25 02:10:46;;;;;;;;;;;;;;;;;;;;;
2022/04/25 02:13:15;;;;;;;6.72;3.35;;;;;;;4.97;90.62;91672.09;4823983;29;20034;-89
2022/04/25 02:15:49;;;;;;;5.40;3.13;;;;;;;5.10;90.67;91682.91;4778820;29;20057;-89
2022/04/25 02:18:25;;;;;;;5.88;2.90;;;;;;;4.95;90.95;91661.25;4792681;29;20050;-89
2022/04/25 02:20:58;;;;;;;10.25;3.35;;;;;;;4.74;90.68;91626.91;4790528;29;20038;-89
2022/04/25 02:23:49;;;;;;;6.38;2.83;;;;;;;5.01;91.01;91669.75;4806725;29;20043;-88
2022/04/25 02:26:37;;;;;;;5.72;2.90;;;;;;;5.16;91.28;91700.00;4770071;29;20041;-90
2022/04/25 02:29:24;;;;;;;;;;;;;;;;;;;;;
2022/04/25 02:32:10;;;;;;;;;;;;;;;;;;;;;
2022/04/25 02:34:53;;;;;;;8.02;2.92;;;;;;;4.96;91.36;91680.16;4792161;29;20039;-89
2022/04/25 02:37:22;;;;;;;5.55;2.95;;;;;;;4.94;91.15;91685.63;4807766;29;20057;-90
2022/04/25 02:40:00;;;;;;;;;;;;;;;;;;;;;
2022/04/25 02:43:01;;;;;;;6.20;2.90;;;;;;;4.77;90.78;91660.06;4809866;29;20569;-89
2022/04/25 02:45:39;;;;;;;;;;;;;;;;;;;;;
2022/04/25 02:48:16;;;;;;;10.82;2.72;;;;;;;4.78;90.29;91664.22;4828597;29;20059;-92
2022/04/25 02:50:42;;;;;;;6.35;3.15;;;;;;;4.93;90.55;91684.09;4827661;29;20153;-89
2022/04/25 02:53:29;;;;;;;4.45;2.63;;;;;;;4.71;90.44;91650.78;4812993;29;20042;-88
2022/04/25 02:56:16;;;;;;;6.88;2.80;;;;;;;4.60;90.52;91641.53;4799652;29;20491;-89
2022/04/25 02:59:09;;;;;;;7.22;3.03;;;;;;;4.64;91.09;91652.91;4793697;29;20078;-88
2022/04/25 03:02:15;;;;;;;;;;;;;;;;;;;;;
2022/04/25 03:04:44;;;;;;;5.80;2.90;;;;;;;4.77;90.50;91677.44;4800647;29;20108;-89
2022/04/25 03:07:30;;;;;;;7.20;2.55;;;;;;;4.78;90.84;91694.56;4792787;29;20138;-88
2022/04/25 03:10:19;;;;;;;15.60;7.05;;;;;;;4.66;91.26;91691.50;4779662;29;20039;-89
2022/04/25 03:13:01;;;;;;;;;;;;;;;;;;;;;
2022/04/25 03:15:33;;;;;;;10.70;3.65;;;;;;;4.50;91.66;91678.66;4794138;29;20496;-89
2022/04/25 03:18:15;;;;;;;8.05;3.22;;;;;;;4.49;91.71;91674.50;4793079;29;20049;-88
2022/04/25 03:21:07;;;;;;;;;;;;;;;;;;;;;
2022/04/25 03:23:47;;;;;;;7.72;3.30;;;;;;;4.42;91.84;91675.84;4794867;29;20138;-89
2022/04/25 03:26:30;;;;;;;9.27;3.72;;;;;;;4.27;92.18;91664.50;4796237;29;20039;-89
2022/04/25 03:31:55;;;;;;;6.30;3.25;;;;;;;4.50;92.52;91701.19;4797048;29;20061;-88
2022/04/25 03:34:34;;;;;;;4.95;3.00;;;;;;;4.38;92.79;91685.97;4800538;29;20049;-89
2022/04/25 03:37:15;;;;;;;6.88;2.78;;;;;;;4.26;92.83;91662.97;4794418;29;20043;-89
2022/04/25 03:42:52;;;;;;;7.50;3.40;;;;;;;4.37;93.73;91685.19;4798525;29;20046;-90
2022/04/25 03:45:33;;;;;;;7.90;3.22;;;;;;;4.24;93.77;91674.66;4795571;29;20064;-89
2022/04/25 03:48:06;;;;;;;5.22;3.03;;;;;;;4.27;93.66;91682.66;4792131;29;20046;-89
2022/04/25 03:51:03;;;;;;;6.50;3.65;;;;;;;4.00;93.92;91653.75;4815150;29;20035;-88
2022/04/25 03:53:41;;;;;;;7.38;3.72;;;;;;;4.07;93.92;91670.56;4809802;29;20038;-88
2022/04/25 03:59:08;;;;;;;7.28;3.63;;;;;;;4.17;93.96;91686.06;4793975;29;20057;-89
2022/04/25 04:01:47;;;;;;;10.05;3.55;;;;;;;4.05;93.86;91671.88;4810767;29;20050;-89
2022/04/25 04:04:20;;;;;;;5.95;3.95;;;;;;;4.39;94.17;91726.41;4782181;29;20049;-88
2022/04/25 04:06:48;;;;;;;8.85;3.63;;;;;;;4.03;94.33;91674.75;4795519;29;20112;-88
2022/04/25 04:09:45;;;;;;;7.63;3.70;;;;;;;3.99;94.39;91672.94;4794545;29;20039;-88
2022/04/25 04:12:32;;;;;;;7.13;3.60;;;;;;;3.92;94.13;91674.00;4778767;29;20059;-88
2022/04/25 04:15:04;;;;;;;6.90;3.63;;;;;;;3.86;94.43;91656.16;4776418;29;20101;-89
2022/04/25 04:17:37;;;;;;;8.43;3.50;;;;;;;4.10;94.66;91700.34;4776497;29;20383;-89
2022/04/25 04:20:35;;;;;;;8.50;3.70;;;;;;;3.80;94.63;91663.16;4810040;29;20088;-88
2022/04/25 04:23:07;;;;;;;6.13;3.10;;;;;;;4.04;94.74;91704.00;4794608;29;20046;-89
2022/04/25 04:25:46;;;;;;;11.25;3.83;;;;;;;4.18;94.68;91718.69;4793765;29;20066;-88
2022/04/25 04:28:15;;;;;;;10.95;4.07;;;;;;;3.97;94.61;91692.09;4793424;29;20050;-88
2022/04/25 04:31:01;;;;;;;;;;;;;;;;;;;;;
2022/04/25 04:33:32;;;;;;;9.50;4.13;;;;;;;4.05;94.54;91706.31;4807976;29;20049;-88
2022/04/25 04:36:26;;;;;;;7.57;3.88;;;;;;;4.25;94.51;91733.94;4795204;29;20279;-89
2022/04/25 04:39:06;;;;;;;9.63;3.60;;;;;;;3.83;94.04;91660.06;4793690;29;20153;-89
2022/04/25 04:41:43;;;;;;;6.63;3.85;;;;;;;4.05;94.02;91693.34;4793626;29;20030;-88
2022/04/25 04:44:17;;;;;;;7.82;3.63;;;;;;;4.22;94.61;91706.00;4804870;29;20039;-89
2022/04/25 04:46:45;;;;;;;6.25;3.38;;;;;;;4.05;94.43;91677.03;4781302;29;20039;-89
2022/04/25 04:49:22;;;;;;;7.95;3.50;;;;;;;4.20;94.10;91699.53;4809943;29;20030;-85
2022/04/25 04:51:48;;;;;;;8.73;3.85;;;;;;;4.41;93.79;91721.69;4794059;29;20038;-85
2022/04/25 04:54:14;;;;;;;5.18;3.45;;;;;;;4.55;93.44;91740.06;4817203;29;20059;-85
2022/04/25 04:56:41;;;;;;;4.72;3.13;;;;;;;4.65;93.26;91745.19;4803754;29;20042;-90
2022/04/25 04:59:14;;;;;;;5.85;3.00;;;;;;;4.27;91.58;91674.88;4803728;29;20042;-87
2022/04/25 05:01:40;;;;;;;5.93;3.08;;;;;;;4.71;91.74;91732.97;4805579;29;20107;-88
2022/04/25 05:04:06;;;;;;;7.75;3.00;;;;;;;4.84;91.04;91745.34;4806803;29;20464;-87
2022/04/25 05:06:32;;;;;;;5.03;2.70;;;;;;;4.96;90.58;91752.78;4807556;29;20045;-87
2022/04/25 05:08:58;;;;;;;4.78;2.60;;;;;;;4.96;90.29;91737.22;4825158;29;20486;-87
2022/04/25 05:11:24;;;;;;;5.65;2.88;;;;;;;5.07;89.64;91738.72;4804390;29;20046;-86
2022/04/25 05:13:49;;;;;;;8.40;2.90;;;;;;;5.22;89.48;91745.59;4808912;29;20091;-87
2022/04/25 05:16:15;;;;;;;12.93;2.95;;;;;;;5.40;88.57;91757.16;4793826;29;20698;-86
2022/04/25 05:18:41;;;;;;;8.57;2.65;;;;;;;5.55;88.32;91757.03;4807498;29;20046;-87
2022/04/25 05:21:07;;;;;;;7.15;2.75;;;;;;;5.59;88.16;91749.47;4808298;29;20043;-88
2022/04/25 05:23:33;;;;;;;4.82;2.75;;;;;;;5.64;87.59;91741.63;4825063;29;20046;-87
2022/04/25 05:25:59;;;;;;;4.35;2.40;;;;;;;5.88;87.86;91767.66;4808209;29;20540;-87
2022/04/25 05:28:26;;;;;;;5.57;3.00;;;;;;;5.94;87.92;91761.38;4791925;29;20042;-87
2022/04/25 05:30:52;;;;;;;8.60;2.65;;;;;;;6.11;88.11;91750.56;4793333;29;20042;-87
2022/04/25 05:33:18;;;;;;;5.82;2.47;;;;;;;6.24;87.72;91739.50;4823802;29;20038;-87
2022/04/25 05:35:44;;;;;;;5.28;2.80;;;;;;;6.60;86.69;91772.91;4825259;29;20035;-87
2022/04/25 05:38:11;;;;;;;4.43;2.90;;;;;;;6.76;85.98;91765.69;4807700;29;20507;-87
2022/04/25 05:40:37;;;;;;;4.60;2.40;;;;;;;6.81;84.74;91757.81;4825115;29;20372;-88
2022/04/25 05:43:07;;;;;;;5.82;2.60;;;;;;;6.93;84.04;91751.41;4793482;29;20042;-88
2022/04/25 05:45:33;;;;;;;5.10;2.70;;;;;;;7.06;84.82;91755.91;4824405;29;20035;-87
2022/04/25 05:47:59;;;;;;;4.95;2.40;;;;;;;7.22;83.94;91762.44;4808956;29;20118;-87
2022/04/25 05:53:11;;;;;;;6.70;2.67;;;;;;;7.48;82.69;91764.69;4797869;29;20130;-88
2022/04/25 05:55:37;;;;;;;4.55;2.13;;;;;;;7.67;83.22;91772.47;4807676;29;20029;-86
2022/04/25 05:58:04;;;;;;;4.00;2.13;;;;;;;7.85;83.11;91782.06;4792750;29;20046;-87
2022/04/25 06:00:31;;;;;;;5.97;2.28;;;;;;;8.05;83.00;91780.19;4793610;29;20507;-89
2022/04/25 06:02:57;;;;;;;9.05;2.20;;;;;;;8.23;82.03;91776.72;4808348;29;20130;-88
2022/04/25 06:05:23;;;;;;;5.60;2.25;;;;;;;8.37;81.26;91774.13;4808269;29;20121;-88
2022/04/25 06:07:50;;;;;;;4.43;2.40;;;;;;;8.47;81.62;91766.16;4797095;29;20039;-88
2022/04/25 06:10:23;;;;;;;3.42;1.92;;;;;;;8.80;80.03;91783.53;4796276;29;20022;-89
2022/04/25 06:12:51;;;;;;;4.75;1.73;;;;;;;10.07;72.90;91747.78;4800630;29;20038;-90
2022/04/25 06:15:20;;;;;;;6.68;2.83;;;;;;;13.89;59.01;91735.75;4810015;29;20034;-89
2022/04/25 06:17:48;;;;;;;6.43;2.67;;;;;;;16.23;52.51;91743.44;4810372;29;20042;-89
2022/04/25 06:20:17;;;;;;;9.38;2.58;;;;;;;17.63;47.77;91784.50;4809255;29;20088;-89
2022/04/25 06:22:51;;;;;;;4.53;2.35;;;;;;;17.30;47.71;91769.03;4808323;29;20038;-92
2022/04/25 06:25:17;;;;;;;4.72;2.50;;;;;;;18.43;45.17;91766.38;4830224;29;20055;-91
2022/04/25 06:27:42;;;;;;;3.55;1.92;;;;;;;17.52;46.16;91772.91;4819119;29;20050;-89
2022/04/25 06:30:08;;;;;;;5.38;2.47;;;;;;;19.11;43.39;91764.09;4826518;29;20047;-86
2022/04/25 06:32:36;;;;;;;5.53;2.42;;;;;;;17.78;46.05;91771.53;4775986;29;20496;-86
2022/04/25 06:35:02;;;;;;;7.68;2.10;;;;;;;19.02;43.04;91769.63;4797390;29;20087;-86
2022/04/25 06:37:28;;;;;;;4.85;2.25;;;;;;;18.56;43.48;91764.31;4780844;29;20048;-86
2022/04/25 06:39:53;;;;;;;5.00;2.10;;;;;;;18.76;44.12;91761.63;4795351;29;20043;-86
2022/04/25 06:42:20;;;;;;;6.47;2.20;;;;;;;18.37;44.47;91773.06;4784232;29;20097;-86
2022/04/25 06:44:46;;;;;;;3.55;2.03;;;;;;;19.39;41.40;91755.03;4809274;29;20054;-86
2022/04/25 06:47:11;;;;;;;4.22;2.30;;;;;;;20.86;39.76;91768.13;4810273;29;20034;-86
2022/04/25 06:49:38;;;;;;;4.40;2.13;;;;;;;20.13;40.11;91771.16;4780354;29;20070;-86
2022/04/25 06:52:06;;;;;;;7.82;2.47;;;;;;;20.33;40.04;91778.97;4811018;29;20038;-87
2022/04/25 06:54:35;;;;;;;5.03;2.15;;;;;;;18.13;44.97;91760.91;4810107;29;20069;-88
2022/04/25 06:57:02;;;;;;;3.95;2.08;;;;;;;17.84;45.13;91768.31;4826501;29;20046;-86
2022/04/25 06:59:28;;;;;;;3.92;2.10;;;;;;;16.99;49.42;91764.56;4795771;29;20125;-86
2022/04/25 07:01:54;;;;;;;3.55;2.08;;;;;;;15.10;54.38;91774.97;4827199;29;20061;-87
2022/04/25 07:04:20;;;;;;;6.45;2.35;;;;;;;12.28;62.38;91777.78;4826591;29;20042;-86
2022/04/25 07:06:46;;;;;;;5.72;2.33;;;;;;;12.23;63.94;91774.59;4777977;29;20054;-85
2022/04/25 07:09:15;;;;;;;4.78;2.22;;;;;;;12.01;64.70;91784.19;4778327;29;20031;-86
2022/04/25 07:11:45;;;;;;;5.75;2.30;;;;;;;12.45;66.34;91786.69;4810510;29;20026;-86
2022/04/25 07:14:15;;;;;;;3.97;2.17;;;;;;;11.39;66.18;91780.03;4810804;29;20507;-85
2022/04/25 07:16:44;;;;;;;5.60;2.28;;;;;;;10.81;68.28;91768.84;4826289;29;20050;-86
2022/04/25 07:19:13;;;;;;;6.05;2.25;;;;;;;10.76;69.10;91761.16;4826347;29;20049;-85
2022/04/25 07:29:52;;;;;;;5.05;2.10;;;;;;;10.62;69.57;91771.69;4808906;29;20050;-86
2022/04/25 07:32:18;;;;;;;4.43;2.30;;;;;;;10.31;70.32;91769.16;4826218;29;20032;-86
2022/04/25 07:34:47;;;;;;;5.85;2.53;;;;;;;10.35;72.20;91795.47;4817681;29;20078;-86
2022/04/25 07:37:13;;;;;;;7.72;2.20;;;;;;;10.79;71.17;91784.09;4813111;29;20049;-87
2022/04/25 07:39:39;;;;;;;4.68;2.20;;;;;;;10.85;71.01;91795.19;4795210;29;20038;-87
2022/04/25 07:42:05;;;;;;;3.80;2.20;;;;;;;10.81;69.84;91792.41;4782446;29;20131;-87
2022/04/25 07:44:31;;;;;;;3.83;2.05;;;;;;;10.24;71.63;91799.38;4807488;29;20041;-88
2022/04/25 07:46:58;;;;;;;3.70;2.00;;;;;;;10.43;70.97;91788.75;4809225;29;20118;-87
2022/04/25 07:49:24;;;;;;;3.80;2.10;;;;;;;10.81;71.57;91799.50;4808230;29;20039;-87
2022/04/25 07:51:49;;;;;;;5.47;2.20;;;;;;;10.31;71.53;91799.75;4794976;29;20083;-87
2022/04/25 07:54:15;;;;;;;4.03;2.00;;;;;;;10.96;72.41;91808.75;4814423;29;20042;-86
2022/04/25 07:56:42;;;;;;;5.28;2.13;;;;;;;10.94;71.35;91787.34;4799905;29;20113;-91
2022/04/25 07:59:09;;;;;;;3.83;2.00;;;;;;;10.49;73.33;91803.22;4824373;29;20067;-92
2022/04/25 08:01:35;;;;;;;4.25;2.10;;;;;;;10.73;73.04;91789.75;4821760;29;20058;-91
2022/04/25 08:04:01;;;;;;;5.60;1.90;;;;;;;10.67;72.61;91801.44;4813188;29;20026;-92
2022/04/25 08:06:27;;;;;;;3.13;1.70;;;;;;;10.50;71.89;91802.91;4826253;29;20035;-90
2022/04/25 08:08:54;;;;;;;4.25;2.15;;;;;;;10.98;72.76;91804.75;4800957;29;20037;-90
2022/04/25 08:11:20;;;;;;;3.72;2.10;;;;;;;11.25;71.87;91801.13;4827134;29;20039;-87
2022/04/25 08:19:15;;;;;;;3.40;1.90;;;;;;;11.22;71.09;91800.97;4808314;29;20039;-86
2022/04/25 08:21:43;;;;;;;2.95;1.90;;;;;;;10.71;70.82;91807.63;4792560;29;20091;-88
2022/04/25 08:24:11;;;;;;;6.43;2.30;;;;;;;11.33;69.30;91817.94;4791315;29;20034;-86
2022/04/25 08:26:37;;;;;;;4.95;2.20;;;;;;;11.51;68.80;91833.69;4792025;29;20042;-88
2022/04/25 08:29:03;;;;;;;3.30;1.77;;;;;;;11.03;68.97;91825.59;4806726;29;20536;-87
2022/04/25 08:31:30;;;;;;;5.60;1.90;;;;;;;11.31;69.52;91817.47;4814899;29;20026;-88
2022/04/25 08:33:58;;;;;;;4.50;2.00;;;;;;;11.44;68.07;91837.53;4795904;29;20492;-88
2022/04/25 08:36:24;;;;;;;4.22;1.95;;;;;;;11.68;69.21;91844.19;4806072;29;20050;-87
2022/04/25 08:38:51;;;;;;;7.25;2.00;;;;;;;11.36;66.60;91819.19;4797754;29;20098;-87
2022/04/25 08:41:21;;;;;;;5.18;1.90;;;;;;;10.92;68.70;91841.88;4808053;29;20039;-88
2022/04/25 08:43:52;;;;;;;4.57;1.90;;;;;;;11.31;68.25;91835.06;4818288;29;20376;-87
2022/04/25 08:46:20;;;;;;;4.80;2.00;;;;;;;11.63;67.97;91849.56;4805730;29;20121;-87
2022/04/25 08:48:46;;;;;;;3.03;1.90;;;;;;;11.71;66.88;91855.88;4824295;29;20030;-87
2022/04/25 08:51:14;;;;;;;3.28;1.80;;;;;;;11.83;64.79;91841.09;4775561;29;20034;-87
2022/04/25 08:53:41;;;;;;;3.35;1.77;;;;;;;11.76;63.99;91851.28;4802039;29;20061;-87
2022/04/25 08:56:07;;;;;;;2.90;1.73;;;;;;;12.22;63.72;91842.00;4790967;29;20765;-86
2022/04/25 08:58:35;;;;;;;4.68;1.92;;;;;;;12.45;63.00;91839.97;4814709;29;20483;-87
2022/04/25 09:01:02;;;;;;;5.38;1.83;;;;;;;11.74;63.07;91866.53;4818188;29;20191;-86
2022/04/25 09:03:28;;;;;;;3.72;1.70;;;;;;;11.64;64.91;91869.47;4803429;29;20038;-86
2022/04/25 09:05:53;;;;;;;3.88;1.70;;;;;;;12.22;62.42;91852.50;4792802;29;20035;-87
2022/04/25 09:08:19;;;;;;;3.10;1.70;;;;;;;12.43;61.28;91870.25;4804725;29;20046;-86
2022/04/25 09:10:45;;;;;;;4.05;2.10;;;;;;;13.27;59.97;91860.06;4801057;29;20042;-87
2022/04/25 09:13:12;;;;;;;3.75;1.77;;;;;;;12.84;58.77;91869.66;4775439;29;20031;-88
2022/04/25 09:15:38;;;;;;;3.63;1.80;;;;;;;13.32;60.61;91876.44;4804049;29;20046;-87
2022/04/25 09:18:04;;;;;;;2.60;1.52;;;;;;;13.65;55.72;91873.19;4809058;29;20042;-88
2022/04/25 09:20:30;;;;;;;2.90;1.60;;;;;;;13.19;55.41;91860.88;4778203;29;20087;-87
2022/04/25 09:22:57;;;;;;;3.80;1.60;;;;;;;13.82;56.17;91861.75;4824801;29;20130;-86
2022/04/25 09:25:22;;;;;;;4.28;1.52;;;;;;;13.93;56.07;91852.38;4807911;29;20071;-87
2022/04/25 09:28:13;;;;;;;3.17;1.70;;;;;;;13.81;58.34;91854.97;4795995;29;20047;-89
2022/04/25 09:30:38;;;;;;;3.97;1.77;;;;;;;14.07;55.31;91860.03;4775675;29;20511;-87
2022/04/25 09:33:22;;;;;;;4.70;2.03;;;;;;;14.66;55.12;91861.69;4790370;29;20030;-87
2022/04/25 09:35:53;;;;;;;5.97;2.30;;;;;;;14.52;54.55;91869.84;4792191;29;20039;-87
2022/04/25 09:38:29;;;;;;;3.17;1.80;;;;;;;13.84;54.72;91875.34;4790252;29;20042;-88
2022/04/25 09:40:55;;;;;;;3.03;1.70;;;;;;;13.81;54.13;91881.28;4776049;29;20394;-87
2022/04/25 09:43:29;;;;;;;3.90;1.85;;;;;;;13.29;55.67;91863.94;4776185;29;20149;-88
2022/04/25 09:46:11;;;;;;;4.60;1.95;;;;;;;14.08;55.44;91868.69;4791386;29;20039;-88
2022/04/25 09:48:43;;;;;;;3.28;1.80;;;;;;;14.28;54.09;91882.94;4799226;29;20042;-87
2022/04/25 09:51:16;;;;;;;3.15;1.77;;;;;;;14.12;53.52;91874.84;4793221;29;20656;-89
2022/04/25 09:53:50;;;;;;;3.15;1.70;;;;;;;13.30;55.74;91878.63;4811479;29;20421;-87
2022/04/25 09:56:24;;;;;;;4.40;1.70;;;;;;;13.67;56.78;91875.50;4799523;29;20038;-88
2022/04/25 09:59:10;;;;;;;4.47;1.60;;;;;;;13.75;55.08;91856.25;4830315;29;20068;-91
2022/04/25 10:01:40;;;;;;;6.88;1.95;;;;;;;13.54;53.46;91870.13;4820064;29;20078;-90
2022/04/25 10:04:26;;;;;;;3.72;1.42;;;;;;;13.30;54.47;91881.25;4802700;29;20039;-88
2022/04/25 10:06:52;;;;;;;1.33;1.05;;;;;;;13.28;55.08;91888.69;4795777;29;20038;-87
2022/04/25 10:09:20;;;;;;;5.15;1.58;;;;;;;13.21;54.58;91880.50;4808967;29;20026;-87
2022/04/25 10:11:48;;;;;;;3.25;1.50;;;;;;;13.17;53.28;91876.19;4796538;29;20079;-88
2022/04/25 10:14:15;;;;;;;3.13;1.40;;;;;;;13.19;52.15;91887.16;4810564;29;20041;-87
2022/04/25 10:16:41;;;;;;;2.70;1.30;;;;;;;13.74;51.86;91876.50;4826160;29;20038;-87
2022/04/25 10:19:08;;;;;;;4.00;1.45;;;;;;;13.22;52.46;91858.38;4807482;29;20046;-87
2022/04/25 10:21:34;;;;;;;2.78;1.40;;;;;;;13.33;53.74;91883.25;4808354;29;20543;-88
2022/04/25 10:24:00;;;;;;;4.10;1.80;;;;;;;13.73;51.58;91887.34;4808652;29;20054;-87
2022/04/25 10:26:27;;;;;;;2.67;1.40;;;;;;;13.81;52.24;91886.53;4793993;29;20042;-87
2022/04/25 10:28:55;;;;;;;3.28;1.45;;;;;;;13.47;52.18;91888.28;4792846;29;20038;-87
2022/04/25 10:31:25;;;;;;;1.92;1.30;;;;;;;13.60;51.56;91875.22;4792944;29;20018;-88
2022/04/25 10:33:58;;;;;;;3.13;1.50;;;;;;;13.60;51.67;91883.88;4823477;29;20394;-88
2022/04/25 10:36:36;;;;;;;3.72;1.45;;;;;;;14.18;52.32;91894.59;4783218;29;20038;-87
2022/04/25 10:39:24;;;;;;;4.57;1.80;;;;;;;13.91;52.40;91891.41;4792330;29;20045;-89
2022/04/25 10:44:37;;;;;;;3.35;1.60;;;;;;;14.12;51.97;91907.22;4807464;29;20049;-88
2022/04/25 10:47:03;;;;;;;2.65;1.50;;;;;;;14.19;51.87;91901.44;4790014;29;20023;-88
2022/04/25 10:49:45;;;;;;;3.40;1.58;;;;;;;14.75;51.11;91901.88;4804018;29;20093;-88
2022/04/25 10:52:33;;;;;;;4.30;1.73;;;;;;;14.67;51.95;91913.25;4792035;29;20041;-88
2022/04/25 10:55:33;;;;;;;4.43;1.75;;;;;;;14.17;51.48;91903.59;4807096;29;20035;-88
2022/04/25 10:58:07;;;;;;;4.70;1.90;;;;;;;14.38;52.38;91914.88;4791782;29;20031;-88
2022/04/25 11:00:39;;;;;;;3.90;1.70;;;;;;;13.83;52.38;91913.28;4791723;29;20065;-88
2022/04/25 11:03:19;;;;;;;6.55;1.70;;;;;;;14.29;52.24;91916.06;4807037;29;20053;-88
2022/04/25 11:05:45;;;;;;;5.05;1.85;;;;;;;14.26;51.88;91903.53;4824224;29;20096;-89
2022/04/25 11:08:19;;;;;;;2.92;1.67;;;;;;;14.92;51.82;91922.00;4807266;29;20026;-88
2022/04/25 11:10:49;;;;;;;4.03;2.00;;;;;;;14.98;51.12;91925.22;4806544;29;20038;-89
2022/04/25 11:13:18;;;;;;;4.00;2.03;;;;;;;14.68;52.02;91919.28;4790594;29;20133;-88
2022/04/25 11:15:44;;;;;;;5.07;2.28;;;;;;;15.26;49.96;91940.41;4792768;29;20034;-88
2022/04/25 11:18:34;;;;;;;6.70;2.00;;;;;;;13.70;51.88;91927.44;4807710;29;20041;-88
2022/04/25 11:21:05;;;;;;;2.83;1.67;;;;;;;14.31;51.49;91919.13;4809831;29;20062;-88
2022/04/25 11:23:35;;;;;;;4.25;2.17;;;;;;;14.57;51.08;91917.09;4803399;29;20031;-88
2022/04/25 11:26:05;;;;;;;2.83;1.73;;;;;;;15.13;52.36;91911.41;4776949;29;20066;-88
2022/04/25 11:28:33;;;;;;;3.83;2.10;;;;;;;14.94;51.26;91904.00;4749235;29;20041;-88
2022/04/25 11:31:13;;;;;;;5.47;2.67;;;;;;;15.43;49.45;91916.47;4777251;29;20057;-88
2022/04/25 11:33:41;;;;;;;6.43;2.30;;;;;;;15.29;51.56;91910.75;4779986;29;20041;-90
2022/04/25 11:36:08;;;;;;;4.15;1.90;;;;;;;15.39;51.13;91915.59;4809743;29;20379;-88
2022/04/25 11:41:38;;;;;;;4.60;2.20;;;;;;;14.88;50.45;91921.13;4808640;29;20050;-89
2022/04/25 11:44:05;;;;;;;4.00;2.20;;;;;;;15.32;50.16;91934.59;4806331;29;20074;-89
2022/04/25 11:46:32;;;;;;;4.07;2.10;;;;;;;15.10;50.48;91937.63;4779668;29;20533;-89
2022/04/25 11:49:01;;;;;;;3.67;1.98;;;;;;;14.75;48.99;91930.88;4800890;29;20061;-90
2022/04/25 11:51:33;;;;;;;5.07;2.28;;;;;;;14.55;51.73;91940.34;4809074;29;20038;-90
2022/04/25 11:54:04;;;;;;;4.18;2.13;;;;;;;15.09;52.80;91928.22;4808861;29;20086;-89
2022/04/25 11:56:34;;;;;;;4.13;2.03;;;;;;;14.15;51.41;91926.84;4824884;29;20713;-89
2022/04/25 11:59:07;;;;;;;4.00;2.00;;;;;;;14.38;52.20;91938.56;4791356;29;20070;-89
2022/04/25 12:01:36;;;;;;;6.30;2.13;;;;;;;14.55;52.49;91952.75;4805568;29;20047;-90
2022/04/25 12:04:29;;;;;;;5.63;2.30;;;;;;;14.18;54.66;91926.19;4775960;29;20497;-88
2022/04/25 12:07:02;;;;;;;;;;;;;;;14.25;53.35;91950.16;4807611;29;20536;-86
2022/04/25 12:17:53;;;;;;;5.25;2.40;;;;;;;15.18;50.99;91932.28;4798033;29;20502;-89
2022/04/25 12:20:32;;;;;;;5.30;2.15;;;;;;;15.54;52.44;91935.28;4808597;29;20203;-89
2022/04/25 12:22:59;;;;;;;4.18;1.92;;;;;;;14.96;51.58;91930.03;4793509;29;20034;-89
2022/04/25 12:25:28;;;;;;;4.40;2.30;;;;;;;14.81;52.46;91944.59;4824303;29;20106;-88
2022/04/25 12:28:19;;;;;;;6.63;2.45;;;;;;;14.72;51.06;91934.13;4806794;29;20034;-89
2022/04/25 12:30:51;;;;;;;3.70;2.10;;;;;;;14.61;52.54;91933.00;4807215;29;20050;-89
2022/04/25 12:33:20;;;;;;;4.68;2.10;;;;;;;14.93;51.64;91949.91;4789533;29;20477;-88
2022/04/25 12:35:48;;;;;;;6.97;2.75;;;;;;;15.48;50.56;91942.63;4775548;29;20035;-88
2022/04/25 12:38:38;;;;;;;6.93;2.67;;;;;;;15.72;49.93;91941.13;4776261;29;20064;-89
2022/04/25 12:41:05;;;;;;;4.97;2.47;;;;;;;15.99;49.97;91935.16;4790138;29;20039;-88
2022/04/25 12:43:50;;;;;;;4.82;2.10;;;;;;;15.58;49.60;91941.41;4789393;29;20081;-88
2022/04/25 12:46:35;;;;;;;4.55;2.50;;;;;;;15.53;50.98;91942.41;4784090;29;20042;-89
2022/04/25 12:49:11;;;;;;;3.78;2.20;;;;;;;16.14;49.70;91925.00;4792845;29;20502;-89
2022/04/25 12:51:50;;;;;;;6.20;2.90;;;;;;;15.81;48.65;91918.03;4824641;29;20034;-88
2022/04/25 12:54:37;;;;;;;4.43;1.83;;;;;;;15.75;48.67;91935.94;4778251;29;20444;-89
2022/04/25 12:57:24;;;;;;;5.40;2.28;;;;;;;15.40;49.85;91914.47;4798346;29;20080;-88
2022/04/25 12:59:53;;;;;;;6.45;2.53;;;;;;;15.55;50.60;91934.16;4790160;29;20039;-88
2022/04/25 13:02:32;;;;;;;4.15;2.15;;;;;;;14.98;50.43;91931.25;4789884;29;20050;-89
2022/04/25 13:05:07;;;;;;;6.05;2.50;;;;;;;15.16;50.49;91936.34;4806658;29;20035;-89
2022/04/25 13:07:37;;;;;;;5.45;2.95;;;;;;;15.35;50.54;91939.19;4796220;29;20051;-90
2022/04/25 13:10:07;;;;;;;6.45;3.40;;;;;;;15.06;50.92;91926.19;4774092;29;20035;-91